createdAt,value
2023-03-18T00:01:04.181Z,6.36
2023-03-18T00:03:32.558Z,6.06
2023-03-18T00:06:18.593Z,5.98
2023-03-18T00:08:47.393Z,6.07
2023-03-18T00:11:16.559Z,5.99
2023-03-18T00:13:44.414Z,6.00
2023-03-18T00:16:12.548Z,5.78
2023-03-18T00:18:40.429Z,5.74
2023-03-18T00:21:08.453Z,5.82
2023-03-18T00:23:37.159Z,6.14
2023-03-18T00:26:05.369Z,5.88
2023-03-18T00:28:32.810Z,5.57
2023-03-18T00:31:09.284Z,5.47
2023-03-18T00:33:38.258Z,5.41
2023-03-18T00:36:15.660Z,5.50
2023-03-18T00:38:45.884Z,5.67
2023-03-18T00:41:15.985Z,5.50
2023-03-18T00:43:54.574Z,5.71
2023-03-18T00:46:31.377Z,5.81
2023-03-18T00:49:01.106Z,5.84
2023-03-18T00:51:32.330Z,5.81
2023-03-18T00:54:02.094Z,5.69
2023-03-18T00:56:31.993Z,5.64
2023-03-18T00:59:00.240Z,5.75
2023-03-18T01:01:28.661Z,6.01
2023-03-18T01:03:56.551Z,6.13
2023-03-18T01:06:28.461Z,5.83
2023-03-18T01:08:57.156Z,5.80
2023-03-18T01:11:25.407Z,5.76
2023-03-18T01:13:53.212Z,5.84
2023-03-18T01:16:21.720Z,5.70
2023-03-18T01:18:49.396Z,5.60
2023-03-18T01:21:18.119Z,5.58
2023-03-18T01:23:46.999Z,5.59
2023-03-18T01:26:14.783Z,5.64
2023-03-18T01:28:43.067Z,5.72
2023-03-18T01:31:12.593Z,5.57
2023-03-18T01:33:41.531Z,5.44
2023-03-18T01:36:09.475Z,5.57
2023-03-18T01:38:37.701Z,5.57
2023-03-18T01:41:07.069Z,5.77
2023-03-18T01:43:37.036Z,5.56
2023-03-18T01:46:27.875Z,5.60
2023-03-18T01:48:55.476Z,5.47
2023-03-18T01:51:24.370Z,5.36
2023-03-18T01:53:52.340Z,5.29
2023-03-18T01:56:21.032Z,5.30
2023-03-18T01:58:52.388Z,5.26
2023-03-18T02:01:20.147Z,5.03
2023-03-18T02:03:48.496Z,5.22
2023-03-18T02:06:16.180Z,5.25
2023-03-18T02:08:44.287Z,5.23
2023-03-18T02:11:12.322Z,5.36
2023-03-18T02:13:42.557Z,5.05
2023-03-18T02:16:16.446Z,5.13
2023-03-18T02:18:49.446Z,5.21
2023-03-18T02:21:42.547Z,5.19
2023-03-18T02:24:22.671Z,5.14
2023-03-18T02:27:12.291Z,5.29
2023-03-18T02:29:42.349Z,5.39
2023-03-18T02:32:11.803Z,5.33
2023-03-18T02:34:40.888Z,5.29
2023-03-18T02:37:08.652Z,5.24
2023-03-18T02:39:36.374Z,5.03
2023-03-18T02:42:04.351Z,5.15
2023-03-18T02:44:33.482Z,4.95
2023-03-18T02:47:06.889Z,5.12
2023-03-18T02:49:34.701Z,5.30
2023-03-18T02:52:02.397Z,5.34
2023-03-18T02:54:30.800Z,5.32
2023-03-18T02:56:58.706Z,5.30
2023-03-18T02:59:26.722Z,5.30
2023-03-18T03:01:55.172Z,5.43
2023-03-18T03:04:24.351Z,5.30
2023-03-18T03:06:52.986Z,5.30
2023-03-18T03:09:22.648Z,5.36
2023-03-18T03:11:51.522Z,5.25
2023-03-18T03:14:20.012Z,5.12
2023-03-18T03:16:48.585Z,5.03
2023-03-18T03:19:17.905Z,5.13
2023-03-18T03:21:45.690Z,5.08
2023-03-18T03:24:13.202Z,4.99
2023-03-18T03:26:41.180Z,5.01
2023-03-18T03:29:08.684Z,4.92
2023-03-18T03:31:37.662Z,4.97
2023-03-18T03:34:06.921Z,4.90
2023-03-18T03:36:35.757Z,4.63
2023-03-18T03:39:04.257Z,4.75
2023-03-18T03:41:35.756Z,4.91
2023-03-18T03:44:03.287Z,4.58
2023-03-18T03:46:31.285Z,4.75
2023-03-18T03:48:59.322Z,4.52
2023-03-18T03:51:28.196Z,4.76
2023-03-18T03:53:55.727Z,4.86
2023-03-18T03:56:23.509Z,4.78
2023-03-18T03:58:50.938Z,4.83
2023-03-18T04:01:18.501Z,4.88
2023-03-18T04:03:46.435Z,4.68
2023-03-18T04:06:13.886Z,4.52
2023-03-18T04:08:43.211Z,4.62
2023-03-18T04:11:12.758Z,4.61
2023-03-18T04:13:41.864Z,4.67
2023-03-18T04:16:09.678Z,4.41
2023-03-18T04:18:37.414Z,4.51
2023-03-18T04:21:05.985Z,4.50
2023-03-18T04:23:36.255Z,4.46
2023-03-18T04:26:05.384Z,4.51
2023-03-18T04:28:33.204Z,4.29
2023-03-18T04:31:01.367Z,4.23
2023-03-18T04:33:29.106Z,4.35
2023-03-18T04:35:56.642Z,4.41
2023-03-18T04:38:24.572Z,4.57
2023-03-18T04:40:52.829Z,4.61
2023-03-18T04:43:20.306Z,4.51
2023-03-18T04:45:49.127Z,4.26
2023-03-18T04:48:17.000Z,4.39
2023-03-18T04:50:45.891Z,4.47
2023-03-18T04:53:13.890Z,4.45
2023-03-18T04:55:41.731Z,4.48
2023-03-18T04:58:09.818Z,4.68
2023-03-18T05:00:38.602Z,4.61
2023-03-18T05:03:12.692Z,4.55
2023-03-18T05:05:40.769Z,4.53
2023-03-18T05:08:10.250Z,4.53
2023-03-18T05:10:38.484Z,4.55
2023-03-18T05:13:06.352Z,4.53
2023-03-18T05:15:34.697Z,4.30
2023-03-18T05:18:02.540Z,4.47
2023-03-18T05:20:30.678Z,4.34
2023-03-18T05:22:58.667Z,4.29
2023-03-18T05:25:27.128Z,4.10
2023-03-18T05:27:54.888Z,4.46
2023-03-18T05:30:23.410Z,4.00
2023-03-18T05:32:51.558Z,4.29
2023-03-18T05:35:19.506Z,4.11
2023-03-18T05:37:47.783Z,4.48
2023-03-18T05:40:16.451Z,4.61
2023-03-18T05:42:55.832Z,4.32
2023-03-18T05:45:25.892Z,4.51
2023-03-18T05:47:54.061Z,4.76
2023-03-18T05:50:34.089Z,4.82
2023-03-18T05:53:03.766Z,4.87
2023-03-18T05:55:33.125Z,4.86
2023-03-18T05:58:01.020Z,4.82
2023-03-18T06:00:29.988Z,4.79
2023-03-18T06:03:00.130Z,5.05
2023-03-18T06:05:28.974Z,5.09
2023-03-18T06:07:56.842Z,5.01
2023-03-18T06:10:25.447Z,5.17
2023-03-18T06:12:55.383Z,4.84
2023-03-18T06:15:23.632Z,4.85
2023-03-18T06:17:51.593Z,4.87
2023-03-18T06:20:19.626Z,4.51
2023-03-18T06:22:49.762Z,5.04
2023-03-18T06:25:19.916Z,5.28
2023-03-18T06:27:48.465Z,5.05
2023-03-18T06:30:17.632Z,5.23
2023-03-18T06:32:45.496Z,5.32
2023-03-18T06:35:13.041Z,5.71
2023-03-18T06:37:40.551Z,5.83
2023-03-18T06:40:12.379Z,5.59
2023-03-18T06:42:41.489Z,5.73
2023-03-18T06:45:10.136Z,5.79
2023-03-18T06:47:39.400Z,5.73
2023-03-18T06:50:07.121Z,5.74
2023-03-18T06:52:35.385Z,5.78
2023-03-18T06:55:04.495Z,5.71
2023-03-18T06:57:32.811Z,5.82
2023-03-18T07:00:00.515Z,6.04
2023-03-18T07:02:27.944Z,5.85
2023-03-18T07:04:56.077Z,5.80
2023-03-18T07:07:24.713Z,5.93
2023-03-18T07:09:53.590Z,5.84
2023-03-18T07:12:21.333Z,5.83
2023-03-18T07:14:49.268Z,6.07
2023-03-18T07:17:19.939Z,6.41
2023-03-18T07:19:47.689Z,6.30
2023-03-18T07:22:19.304Z,6.16
2023-03-18T07:24:47.963Z,6.37
2023-03-18T07:27:16.672Z,6.50
2023-03-18T07:29:44.061Z,6.77
2023-03-18T07:32:11.525Z,6.76
2023-03-18T07:34:39.215Z,7.24
2023-03-18T07:37:06.804Z,6.82
2023-03-18T07:39:34.202Z,6.72
2023-03-18T07:42:02.164Z,6.78
2023-03-18T07:44:29.874Z,7.21
2023-03-18T07:46:57.471Z,7.48
2023-03-18T07:49:25.200Z,7.73
2023-03-18T07:51:52.592Z,7.65
2023-03-18T07:54:20.142Z,7.48
2023-03-18T07:56:48.823Z,7.48
2023-03-18T07:59:18.611Z,7.48
2023-03-18T08:01:47.055Z,7.55
2023-03-18T08:04:16.532Z,7.72
2023-03-18T08:06:45.039Z,7.91
2023-03-18T08:09:12.451Z,7.79
2023-03-18T08:11:40.370Z,8.04
2023-03-18T08:14:07.765Z,8.00
2023-03-18T08:16:35.190Z,8.19
2023-03-18T08:19:02.903Z,8.89
2023-03-18T08:21:31.677Z,8.97
2023-03-18T08:23:59.098Z,8.76
2023-03-18T08:26:26.963Z,8.44
2023-03-18T08:28:54.820Z,8.50
2023-03-18T08:31:22.414Z,8.76
2023-03-18T08:33:50.519Z,8.78
2023-03-18T08:36:18.659Z,8.85
2023-03-18T08:38:46.065Z,8.83
2023-03-18T08:41:14.533Z,9.09
2023-03-18T08:43:41.900Z,9.17
2023-03-18T08:46:09.540Z,9.46
2023-03-18T08:48:37.245Z,9.11
2023-03-18T08:51:14.677Z,9.35
2023-03-18T08:53:42.743Z,9.26
2023-03-18T08:56:10.142Z,9.71
2023-03-18T08:58:37.973Z,9.59
2023-03-18T09:01:06.132Z,10.38
2023-03-18T09:03:34.691Z,10.20
2023-03-18T09:06:03.349Z,10.22
2023-03-18T09:08:32.588Z,10.00
2023-03-18T09:11:00.115Z,10.05
2023-03-18T09:13:27.521Z,9.73
2023-03-18T09:15:55.206Z,9.95
2023-03-18T09:18:23.038Z,10.48
2023-03-18T09:20:50.582Z,9.96
2023-03-18T09:23:18.848Z,9.71
2023-03-18T09:25:46.713Z,10.37
2023-03-18T09:28:14.559Z,10.17
2023-03-18T09:30:42.666Z,10.08
2023-03-18T09:33:11.631Z,10.32
2023-03-18T09:35:39.314Z,10.83
2023-03-18T09:38:07.400Z,11.09
2023-03-18T09:40:38.400Z,10.87
2023-03-18T09:43:29.449Z,11.02
2023-03-18T09:45:57.552Z,11.29
2023-03-18T09:48:43.513Z,11.62
2023-03-18T09:51:19.160Z,10.96
2023-03-18T09:53:58.906Z,11.35
2023-03-18T09:56:30.118Z,11.56
2023-03-18T09:59:16.481Z,11.20
2023-03-18T10:01:46.619Z,11.68
2023-03-18T10:04:18.561Z,11.31
2023-03-18T10:06:47.228Z,11.57
2023-03-18T10:09:27.157Z,11.71
2023-03-18T10:12:01.688Z,11.73
2023-03-18T10:14:49.530Z,11.80
2023-03-18T10:17:22.596Z,11.59
2023-03-18T10:19:55.471Z,12.26
2023-03-18T10:22:45.396Z,11.90
2023-03-18T10:25:23.688Z,11.83
2023-03-18T10:27:57.419Z,11.55
2023-03-18T10:30:49.781Z,11.63
2023-03-18T10:33:37.289Z,11.65
2023-03-18T10:36:44.987Z,11.81
2023-03-18T10:39:18.371Z,11.75
2023-03-18T10:41:50.626Z,11.82
2023-03-18T10:44:22.173Z,11.74
2023-03-18T10:47:15.545Z,12.03
2023-03-18T10:49:47.375Z,11.92
2023-03-18T10:52:38.909Z,12.08
2023-03-18T10:55:15.928Z,12.30
2023-03-18T10:57:44.110Z,12.64
2023-03-18T11:00:29.823Z,13.14
2023-03-18T11:02:57.756Z,13.57
2023-03-18T11:05:28.396Z,13.62
2023-03-18T11:08:01.431Z,12.99
2023-03-18T11:10:36.595Z,12.98
2023-03-18T11:13:04.347Z,13.13
2023-03-18T11:15:39.294Z,13.53
2023-03-18T11:18:14.446Z,13.44
2023-03-18T11:20:45.367Z,13.05
2023-03-18T11:24:08.211Z,13.54
2023-03-18T11:26:56.249Z,13.23
2023-03-18T11:29:27.304Z,13.50
2023-03-18T11:31:58.463Z,13.11
2023-03-18T11:34:27.932Z,13.75
2023-03-18T11:37:08.329Z,13.31
2023-03-18T11:39:38.519Z,13.42
2023-03-18T11:42:32.729Z,14.02
2023-03-18T11:45:03.556Z,14.15
2023-03-18T11:47:33.125Z,14.03
2023-03-18T11:50:02.966Z,14.46
2023-03-18T11:53:14.084Z,14.17
2023-03-18T11:56:06.686Z,13.35
2023-03-18T11:58:37.162Z,13.16
2023-03-18T12:01:13.600Z,13.52
2023-03-18T12:04:04.256Z,14.02
2023-03-18T12:06:36.061Z,13.79
2023-03-18T12:09:18.539Z,13.42
2023-03-18T12:11:57.730Z,13.52
2023-03-18T12:14:30.290Z,13.83
2023-03-18T12:17:25.612Z,14.18
2023-03-18T12:20:30.735Z,14.55
2023-03-18T12:23:30.371Z,13.87
2023-03-18T12:26:01.043Z,14.16
2023-03-18T12:28:42.647Z,14.72
2023-03-18T12:31:20.288Z,13.79
2023-03-18T12:33:58.079Z,14.34
2023-03-18T12:36:33.185Z,14.15
2023-03-18T12:39:10.029Z,14.37
2023-03-18T12:41:48.989Z,14.02
2023-03-18T12:44:37.969Z,14.10
2023-03-18T12:47:12.039Z,13.87
2023-03-18T12:49:42.408Z,13.59
2023-03-18T12:52:36.011Z,13.77
2023-03-18T12:55:21.708Z,13.85
2023-03-18T12:57:54.554Z,13.76
2023-03-18T13:00:31.941Z,13.78
2023-03-18T13:03:07.433Z,13.82
2023-03-18T13:05:53.105Z,13.86
2023-03-18T13:08:26.861Z,13.50
2023-03-18T13:11:10.518Z,13.77
2023-03-18T13:13:44.602Z,14.09
2023-03-18T13:16:13.798Z,13.47
2023-03-18T13:18:44.851Z,14.10
2023-03-18T13:21:17.532Z,14.25
2023-03-18T13:24:16.750Z,14.05
2023-03-18T13:27:20.146Z,13.88
2023-03-18T13:29:50.803Z,13.96
2023-03-18T13:32:24.583Z,14.46
2023-03-18T13:35:13.189Z,14.15
2023-03-18T13:37:46.711Z,14.23
2023-03-18T13:40:42.997Z,14.53
2023-03-18T13:43:18.533Z,14.49
2023-03-18T13:45:49.529Z,14.72
2023-03-18T13:48:18.537Z,14.72
2023-03-18T13:50:48.713Z,14.41
2023-03-18T13:53:28.790Z,14.63
2023-03-18T13:55:56.627Z,14.59
2023-03-18T13:58:27.767Z,14.60
2023-03-18T14:00:55.075Z,14.78
2023-03-18T14:03:52.138Z,14.74
2023-03-18T14:06:36.849Z,14.63
2023-03-18T14:09:30.710Z,14.73
2023-03-18T14:12:17.037Z,14.18
2023-03-18T14:14:51.395Z,14.60
2023-03-18T14:17:38.976Z,14.85
2023-03-18T14:20:17.068Z,14.43
2023-03-18T14:22:49.881Z,14.72
2023-03-18T14:25:17.466Z,14.57
2023-03-18T14:27:58.293Z,14.59
2023-03-18T14:30:32.262Z,15.12
2023-03-18T14:33:03.175Z,14.26
2023-03-18T14:36:15.736Z,14.71
2023-03-18T14:38:57.364Z,14.40
2023-03-18T14:41:29.632Z,14.43
2023-03-18T14:44:21.527Z,14.88
2023-03-18T14:46:58.183Z,14.86
2023-03-18T14:49:37.101Z,14.76
2023-03-18T14:52:22.616Z,14.77
2023-03-18T14:54:51.315Z,14.55
2023-03-18T14:57:22.308Z,14.12
2023-03-18T14:59:49.720Z,14.17
2023-03-18T15:02:46.457Z,13.93
2023-03-18T15:05:17.723Z,13.98
2023-03-18T15:07:50.530Z,13.75
2023-03-18T15:10:26.319Z,13.90
2023-03-18T15:13:14.897Z,14.15
2023-03-18T15:15:42.781Z,14.20
2023-03-18T15:18:19.262Z,14.21
2023-03-18T15:20:49.795Z,14.02
2023-03-18T15:23:20.711Z,13.90
2023-03-18T15:25:49.402Z,13.65
2023-03-18T15:28:23.794Z,13.86
2023-03-18T15:30:54.531Z,13.57
2023-03-18T15:33:24.749Z,13.76
2023-03-18T15:35:58.025Z,13.96
2023-03-18T15:38:28.330Z,14.12
2023-03-18T15:41:00.512Z,14.21
2023-03-18T15:43:35.570Z,14.23
2023-03-18T15:46:16.727Z,14.52
2023-03-18T15:48:54.154Z,14.22
2023-03-18T15:51:56.310Z,14.45
2023-03-18T16:45:47.306Z,13.45
2023-03-18T16:48:18.644Z,13.41
2023-03-18T16:50:48.191Z,13.60
2023-03-18T16:53:36.165Z,13.37
2023-03-18T16:56:15.045Z,13.38
2023-03-18T16:58:45.428Z,13.33
2023-03-18T17:01:17.088Z,13.28
2023-03-18T17:03:46.013Z,13.34
2023-03-18T17:06:14.673Z,13.28
2023-03-18T17:08:42.615Z,13.17
2023-03-18T17:11:18.269Z,13.06
2023-03-18T17:13:45.998Z,13.01
2023-03-18T17:16:20.068Z,12.96
2023-03-18T17:18:48.228Z,13.02
2023-03-18T17:21:17.140Z,12.73
2023-03-18T17:23:48.054Z,12.81
2023-03-18T17:26:16.299Z,12.82
2023-03-18T17:28:46.537Z,12.71
2023-03-18T17:31:14.900Z,12.70
2023-03-18T17:33:43.582Z,12.70
2023-03-18T17:36:11.630Z,12.56
2023-03-18T17:38:39.188Z,12.55
2023-03-18T17:41:16.103Z,12.62
2023-03-18T17:43:44.312Z,12.57
2023-03-18T17:46:12.473Z,12.47
2023-03-18T17:48:41.116Z,12.37
2023-03-18T17:51:20.816Z,12.32
2023-03-18T17:53:52.161Z,12.44
2023-03-18T17:56:20.796Z,12.31
2023-03-18T17:58:51.898Z,12.26
2023-03-18T18:01:30.252Z,12.30
2023-03-18T18:04:02.211Z,12.25
2023-03-18T18:06:32.936Z,12.26
2023-03-18T18:09:02.900Z,12.12
2023-03-18T18:11:39.576Z,11.87
2023-03-18T18:14:26.519Z,11.91
2023-03-18T18:16:57.079Z,11.80
2023-03-18T18:19:26.140Z,11.87
2023-03-18T18:21:55.373Z,11.83
2023-03-18T18:24:26.081Z,11.60
2023-03-18T18:26:55.097Z,11.46
2023-03-18T18:29:25.313Z,11.35
2023-03-18T18:31:53.275Z,11.48
2023-03-18T18:34:23.773Z,11.54
2023-03-18T18:36:53.174Z,11.52
2023-03-18T18:39:23.412Z,11.54
2023-03-18T18:41:54.104Z,11.65
2023-03-18T18:44:23.358Z,11.32
2023-03-18T18:46:52.438Z,11.42
2023-03-18T18:49:27.369Z,11.44
2023-03-18T18:51:58.097Z,11.16
2023-03-18T18:54:28.591Z,11.26
2023-03-18T18:56:58.095Z,11.25
2023-03-18T18:59:29.129Z,11.25
2023-03-18T19:02:01.224Z,11.11
2023-03-18T19:04:30.741Z,11.02
2023-03-18T19:07:01.404Z,11.01
2023-03-18T19:09:29.468Z,10.89
2023-03-18T19:11:58.270Z,10.93
2023-03-18T19:14:29.569Z,10.89
2023-03-18T19:16:59.266Z,10.90
2023-03-18T19:19:30.182Z,11.01
2023-03-18T19:21:58.342Z,10.90
2023-03-18T19:24:32.298Z,10.79
2023-03-18T19:27:26.675Z,10.98
2023-03-18T19:29:59.947Z,10.83
2023-03-18T19:32:34.488Z,10.72
2023-03-18T19:35:06.091Z,10.77
2023-03-18T19:37:42.297Z,10.59
2023-03-18T19:40:30.392Z,10.67
2023-03-18T19:43:03.673Z,10.64
2023-03-18T19:45:32.628Z,10.68
2023-03-18T19:48:01.085Z,10.35
2023-03-18T19:50:30.905Z,10.37
2023-03-18T19:53:01.258Z,10.30
2023-03-18T19:55:30.492Z,10.39
2023-03-18T19:58:00.362Z,10.46
2023-03-18T20:00:29.743Z,10.38
2023-03-18T20:02:58.794Z,10.35
2023-03-18T20:05:27.827Z,9.70
2023-03-18T20:07:57.278Z,9.74
2023-03-18T20:10:26.653Z,9.89
2023-03-18T20:12:55.224Z,10.14
2023-03-18T20:15:27.522Z,9.89
2023-03-18T20:17:58.832Z,9.72
2023-03-18T20:20:31.857Z,9.54
2023-03-18T20:23:07.634Z,10.03
2023-03-18T20:25:42.408Z,9.70
2023-03-18T20:28:19.202Z,9.66
2023-03-18T20:30:47.767Z,9.74
2023-03-18T20:33:16.476Z,9.95
2023-03-18T20:35:47.959Z,9.94
2023-03-18T20:38:27.064Z,9.67
2023-03-18T20:40:59.463Z,9.67
2023-03-18T20:43:29.262Z,9.64
2023-03-18T20:45:59.895Z,9.36
2023-03-18T20:48:34.266Z,9.23
2023-03-18T20:51:32.149Z,9.01
2023-03-18T20:54:01.360Z,9.02
2023-03-18T20:56:33.217Z,9.36
2023-03-18T20:59:05.859Z,9.15
2023-03-18T21:01:35.794Z,9.26
2023-03-18T21:04:04.830Z,9.39
2023-03-18T21:06:33.093Z,9.44
2023-03-18T21:09:01.676Z,9.50
2023-03-18T21:11:33.184Z,9.46
2023-03-18T21:14:01.401Z,9.67
2023-03-18T21:16:34.335Z,9.65
2023-03-18T21:19:04.423Z,8.97
2023-03-18T21:21:38.657Z,9.29
2023-03-18T21:24:27.501Z,9.08
2023-03-18T21:27:05.485Z,8.94
2023-03-18T21:29:34.222Z,8.74
2023-03-18T21:32:02.805Z,8.83
2023-03-18T21:34:31.706Z,8.88
2023-03-18T21:36:59.504Z,8.61
2023-03-18T21:39:28.247Z,8.40
2023-03-18T21:41:57.566Z,8.74
2023-03-18T21:44:29.108Z,8.72
2023-03-18T21:46:57.517Z,8.92
2023-03-18T21:49:25.817Z,8.80
2023-03-18T21:51:56.844Z,8.85
2023-03-18T21:54:26.132Z,9.01
2023-03-18T21:56:53.810Z,8.84
2023-03-18T21:59:21.755Z,8.63
2023-03-18T22:01:49.941Z,8.85
2023-03-18T22:04:18.140Z,8.45
2023-03-18T22:06:45.666Z,8.77
2023-03-18T22:09:13.069Z,8.85
2023-03-18T22:11:40.802Z,8.85
2023-03-18T22:14:12.184Z,8.60
2023-03-18T22:16:39.779Z,8.61
2023-03-18T22:19:07.472Z,8.61
2023-03-18T22:21:34.885Z,8.61
2023-03-18T22:24:02.311Z,8.65
2023-03-18T22:26:30.054Z,8.43
2023-03-18T22:28:57.467Z,8.63
2023-03-18T22:31:26.643Z,8.54
2023-03-18T22:33:54.887Z,8.71
2023-03-18T22:36:22.640Z,8.65
2023-03-18T22:38:50.167Z,8.27
2023-03-18T22:41:36.174Z,8.74
2023-03-18T22:44:06.421Z,8.68
2023-03-18T22:46:35.669Z,8.85
2023-03-18T22:49:08.103Z,8.19
2023-03-18T22:51:37.065Z,8.68
2023-03-18T22:54:04.506Z,8.36
2023-03-18T22:56:32.496Z,8.24
2023-03-18T22:59:02.978Z,8.36
2023-03-18T23:01:31.169Z,8.27
2023-03-18T23:04:01.181Z,8.41
2023-03-18T23:06:29.887Z,8.37
2023-03-18T23:08:57.285Z,8.27
2023-03-18T23:11:24.766Z,7.87
2023-03-18T23:13:53.909Z,8.14
2023-03-18T23:16:23.261Z,8.02
2023-03-18T23:18:51.184Z,7.97
2023-03-18T23:21:21.278Z,8.27
2023-03-18T23:23:49.184Z,8.17
2023-03-18T23:26:17.075Z,7.85
2023-03-18T23:28:45.837Z,7.91
2023-03-18T23:31:14.895Z,7.77
2023-03-18T23:33:42.685Z,7.75
2023-03-18T23:36:10.848Z,7.92
2023-03-18T23:38:38.304Z,7.77
2023-03-18T23:41:07.219Z,7.77
2023-03-18T23:43:35.010Z,7.73
2023-03-18T23:46:03.797Z,7.76
2023-03-18T23:48:31.546Z,7.62
2023-03-18T23:51:03.637Z,7.75
2023-03-18T23:53:31.065Z,7.83
2023-03-18T23:55:58.745Z,7.66
2023-03-18T23:58:26.308Z,7.56
